<?xml version="1.0" encoding="UTF-8" standalone="no" ?>
<gpx xmlns="http://www.topografix.com/GPX/1/1" xmlns:xsi="http://www.w3.org/2001/XMLSchema-instance" xsi:schemaLocation="http://www.topografix.com/GPX/1/1 http://www.topografix.com/GPX/1/1/gpx.xsd" version="1.1" creator="VisuGPX - https://www.visugpx.com">
  <metadata>
    <name>Circuit du 05-09-2012</name>
    <desc><![CDATA[Circuit du 05-09-2012]]></desc>
  </metadata>
  <wpt lat="45.38381" lon="3.75153">
    <ele>659</ele>
    <name><![CDATA[Start]]></name>
  </wpt>
  <wpt lat="45.38455" lon="3.75136">
    <ele>647</ele>
    <name><![CDATA[End]]></name>
  </wpt>
  <trk>
    <name><![CDATA[Circuit du 05-09-2012_1]]></name>
    <trkseg>
      <trkpt lat="45.38381" lon="3.75153">
        <ele>659</ele>
        <time>2012-09-05T16:38:12Z</time>
      </trkpt>
      <trkpt lat="45.38383" lon="3.75159">
        <ele>657.70001220703</ele>
        <time>2012-09-05T16:38:14Z</time>
      </trkpt>
      <trkpt lat="45.38386" lon="3.75164">
        <ele>656.59997558594</ele>
        <time>2012-09-05T16:38:16Z</time>
      </trkpt>
      <trkpt lat="45.38388" lon="3.7517">
        <ele>656.90002441406</ele>
        <time>2012-09-05T16:38:18Z</time>
      </trkpt>
      <trkpt lat="45.3839" lon="3.75177">
        <ele>656.20001220703</ele>
        <time>2012-09-05T16:38:20Z</time>
      </trkpt>
      <trkpt lat="45.38392" lon="3.75184">
        <ele>654.90002441406</ele>
        <time>2012-09-05T16:38:22Z</time>
      </trkpt>
      <trkpt lat="45.38393" lon="3.75191">
        <ele>655</ele>
        <time>2012-09-05T16:38:24Z</time>
      </trkpt>
      <trkpt lat="45.38394" lon="3.75197">
        <ele>656.40002441406</ele>
        <time>2012-09-05T16:38:26Z</time>
      </trkpt>
      <trkpt lat="45.38396" lon="3.75205">
        <ele>656</ele>
        <time>2012-09-05T16:38:29Z</time>
      </trkpt>
      <trkpt lat="45.38397" lon="3.75212">
        <ele>653.79998779297</ele>
        <time>2012-09-05T16:38:31Z</time>
      </trkpt>
      <trkpt lat="45.38398" lon="3.75218">
        <ele>653.09997558594</ele>
        <time>2012-09-05T16:38:33Z</time>
      </trkpt>
      <trkpt lat="45.38401" lon="3.75227">
        <ele>653.29998779297</ele>
        <time>2012-09-05T16:38:36Z</time>
      </trkpt>
      <trkpt lat="45.38401" lon="3.75234">
        <ele>651.29998779297</ele>
        <time>2012-09-05T16:38:38Z</time>
      </trkpt>
      <trkpt lat="45.38401" lon="3.75241">
        <ele>653.09997558594</ele>
        <time>2012-09-05T16:38:40Z</time>
      </trkpt>
      <trkpt lat="45.38408" lon="3.75244">
        <ele>652.20001220703</ele>
        <time>2012-09-05T16:38:42Z</time>
      </trkpt>
      <trkpt lat="45.38411" lon="3.75252">
        <ele>652.79998779297</ele>
        <time>2012-09-05T16:38:45Z</time>
      </trkpt>
      <trkpt lat="45.38413" lon="3.75262">
        <ele>652.29998779297</ele>
        <time>2012-09-05T16:38:48Z</time>
      </trkpt>
      <trkpt lat="45.38415" lon="3.75282">
        <ele>654.5</ele>
        <time>2012-09-05T16:38:53Z</time>
      </trkpt>
      <trkpt lat="45.38416" lon="3.7529">
        <ele>656.20001220703</ele>
        <time>2012-09-05T16:38:55Z</time>
      </trkpt>
      <trkpt lat="45.38418" lon="3.75297">
        <ele>655.90002441406</ele>
        <time>2012-09-05T16:38:57Z</time>
      </trkpt>
      <trkpt lat="45.38419" lon="3.75304">
        <ele>654.90002441406</ele>
        <time>2012-09-05T16:39:00Z</time>
      </trkpt>
      <trkpt lat="45.38422" lon="3.75309">
        <ele>655.20001220703</ele>
        <time>2012-09-05T16:39:02Z</time>
      </trkpt>
      <trkpt lat="45.38425" lon="3.75315">
        <ele>652.09997558594</ele>
        <time>2012-09-05T16:39:05Z</time>
      </trkpt>
      <trkpt lat="45.38431" lon="3.75318">
        <ele>651.29998779297</ele>
        <time>2012-09-05T16:39:12Z</time>
      </trkpt>
      <trkpt lat="45.38431" lon="3.75328">
        <ele>651.70001220703</ele>
        <time>2012-09-05T16:39:15Z</time>
      </trkpt>
      <trkpt lat="45.38435" lon="3.75333">
        <ele>651.59997558594</ele>
        <time>2012-09-05T16:39:20Z</time>
      </trkpt>
      <trkpt lat="45.38437" lon="3.75341">
        <ele>652.5</ele>
        <time>2012-09-05T16:39:25Z</time>
      </trkpt>
      <trkpt lat="45.38438" lon="3.75348">
        <ele>650.79998779297</ele>
        <time>2012-09-05T16:39:32Z</time>
      </trkpt>
      <trkpt lat="45.38439" lon="3.75355">
        <ele>650.90002441406</ele>
        <time>2012-09-05T16:39:36Z</time>
      </trkpt>
      <trkpt lat="45.38441" lon="3.75361">
        <ele>650.79998779297</ele>
        <time>2012-09-05T16:39:41Z</time>
      </trkpt>
      <trkpt lat="45.38444" lon="3.75367">
        <ele>652</ele>
        <time>2012-09-05T16:39:48Z</time>
      </trkpt>
      <trkpt lat="45.38447" lon="3.75378">
        <ele>653.40002441406</ele>
        <time>2012-09-05T16:39:53Z</time>
      </trkpt>
      <trkpt lat="45.38449" lon="3.75386">
        <ele>654.59997558594</ele>
        <time>2012-09-05T16:39:57Z</time>
      </trkpt>
      <trkpt lat="45.38451" lon="3.75392">
        <ele>654.29998779297</ele>
        <time>2012-09-05T16:40:03Z</time>
      </trkpt>
      <trkpt lat="45.38455" lon="3.75399">
        <ele>653.5</ele>
        <time>2012-09-05T16:40:09Z</time>
      </trkpt>
      <trkpt lat="45.38455" lon="3.75407">
        <ele>654.79998779297</ele>
        <time>2012-09-05T16:40:12Z</time>
      </trkpt>
      <trkpt lat="45.38458" lon="3.75413">
        <ele>654.40002441406</ele>
        <time>2012-09-05T16:40:14Z</time>
      </trkpt>
      <trkpt lat="45.38458" lon="3.75423">
        <ele>653.20001220703</ele>
        <time>2012-09-05T16:40:20Z</time>
      </trkpt>
      <trkpt lat="45.38459" lon="3.75432">
        <ele>653.20001220703</ele>
        <time>2012-09-05T16:40:27Z</time>
      </trkpt>
      <trkpt lat="45.38463" lon="3.75438">
        <ele>653.40002441406</ele>
        <time>2012-09-05T16:40:34Z</time>
      </trkpt>
      <trkpt lat="45.38462" lon="3.75447">
        <ele>652.59997558594</ele>
        <time>2012-09-05T16:40:36Z</time>
      </trkpt>
      <trkpt lat="45.38466" lon="3.75454">
        <ele>653.40002441406</ele>
        <time>2012-09-05T16:40:41Z</time>
      </trkpt>
      <trkpt lat="45.3847" lon="3.75459">
        <ele>654.70001220703</ele>
        <time>2012-09-05T16:40:44Z</time>
      </trkpt>
      <trkpt lat="45.38472" lon="3.75467">
        <ele>652.59997558594</ele>
        <time>2012-09-05T16:40:48Z</time>
      </trkpt>
      <trkpt lat="45.38473" lon="3.75473">
        <ele>652.20001220703</ele>
        <time>2012-09-05T16:40:52Z</time>
      </trkpt>
      <trkpt lat="45.38476" lon="3.75479">
        <ele>652.20001220703</ele>
        <time>2012-09-05T16:40:56Z</time>
      </trkpt>
      <trkpt lat="45.38478" lon="3.75485">
        <ele>652.70001220703</ele>
        <time>2012-09-05T16:41:00Z</time>
      </trkpt>
      <trkpt lat="45.3848" lon="3.75497">
        <ele>649.29998779297</ele>
        <time>2012-09-05T16:41:06Z</time>
      </trkpt>
      <trkpt lat="45.38483" lon="3.75503">
        <ele>650</ele>
        <time>2012-09-05T16:41:08Z</time>
      </trkpt>
      <trkpt lat="45.38486" lon="3.7551">
        <ele>650.29998779297</ele>
        <time>2012-09-05T16:41:10Z</time>
      </trkpt>
      <trkpt lat="45.38488" lon="3.75519">
        <ele>649.29998779297</ele>
        <time>2012-09-05T16:41:13Z</time>
      </trkpt>
      <trkpt lat="45.38489" lon="3.75526">
        <ele>647.59997558594</ele>
        <time>2012-09-05T16:41:16Z</time>
      </trkpt>
      <trkpt lat="45.3849" lon="3.75532">
        <ele>649.09997558594</ele>
        <time>2012-09-05T16:41:18Z</time>
      </trkpt>
      <trkpt lat="45.38492" lon="3.75542">
        <ele>649.40002441406</ele>
        <time>2012-09-05T16:41:21Z</time>
      </trkpt>
      <trkpt lat="45.38494" lon="3.7555">
        <ele>646.79998779297</ele>
        <time>2012-09-05T16:41:24Z</time>
      </trkpt>
      <trkpt lat="45.38496" lon="3.75557">
        <ele>648.40002441406</ele>
        <time>2012-09-05T16:41:26Z</time>
      </trkpt>
      <trkpt lat="45.38498" lon="3.75567">
        <ele>648.79998779297</ele>
        <time>2012-09-05T16:41:30Z</time>
      </trkpt>
      <trkpt lat="45.38499" lon="3.75574">
        <ele>650</ele>
        <time>2012-09-05T16:41:32Z</time>
      </trkpt>
      <trkpt lat="45.38502" lon="3.75588">
        <ele>650.59997558594</ele>
        <time>2012-09-05T16:41:39Z</time>
      </trkpt>
      <trkpt lat="45.38502" lon="3.75596">
        <ele>652.20001220703</ele>
        <time>2012-09-05T16:41:41Z</time>
      </trkpt>
      <trkpt lat="45.38503" lon="3.75605">
        <ele>652.09997558594</ele>
        <time>2012-09-05T16:41:45Z</time>
      </trkpt>
      <trkpt lat="45.38504" lon="3.75613">
        <ele>651.29998779297</ele>
        <time>2012-09-05T16:41:48Z</time>
      </trkpt>
      <trkpt lat="45.38503" lon="3.7562">
        <ele>653.70001220703</ele>
        <time>2012-09-05T16:41:50Z</time>
      </trkpt>
      <trkpt lat="45.38504" lon="3.75626">
        <ele>654.5</ele>
        <time>2012-09-05T16:41:52Z</time>
      </trkpt>
      <trkpt lat="45.38505" lon="3.75635">
        <ele>654.09997558594</ele>
        <time>2012-09-05T16:41:55Z</time>
      </trkpt>
      <trkpt lat="45.38507" lon="3.75645">
        <ele>652.5</ele>
        <time>2012-09-05T16:41:58Z</time>
      </trkpt>
      <trkpt lat="45.3851" lon="3.75653">
        <ele>654.09997558594</ele>
        <time>2012-09-05T16:42:02Z</time>
      </trkpt>
      <trkpt lat="45.38512" lon="3.75659">
        <ele>654.09997558594</ele>
        <time>2012-09-05T16:42:04Z</time>
      </trkpt>
      <trkpt lat="45.38514" lon="3.75666">
        <ele>655.20001220703</ele>
        <time>2012-09-05T16:42:06Z</time>
      </trkpt>
      <trkpt lat="45.38518" lon="3.75664">
        <ele>655.40002441406</ele>
        <time>2012-09-05T16:42:11Z</time>
      </trkpt>
      <trkpt lat="45.38527" lon="3.75665">
        <ele>654.29998779297</ele>
        <time>2012-09-05T16:42:18Z</time>
      </trkpt>
      <trkpt lat="45.38531" lon="3.75668">
        <ele>653.29998779297</ele>
        <time>2012-09-05T16:42:21Z</time>
      </trkpt>
      <trkpt lat="45.38538" lon="3.75669">
        <ele>654.59997558594</ele>
        <time>2012-09-05T16:42:25Z</time>
      </trkpt>
      <trkpt lat="45.38543" lon="3.75669">
        <ele>654.29998779297</ele>
        <time>2012-09-05T16:42:30Z</time>
      </trkpt>
      <trkpt lat="45.38547" lon="3.75672">
        <ele>654.70001220703</ele>
        <time>2012-09-05T16:42:34Z</time>
      </trkpt>
      <trkpt lat="45.38554" lon="3.75671">
        <ele>652.20001220703</ele>
        <time>2012-09-05T16:42:38Z</time>
      </trkpt>
      <trkpt lat="45.38561" lon="3.75677">
        <ele>652</ele>
        <time>2012-09-05T16:42:46Z</time>
      </trkpt>
      <trkpt lat="45.38565" lon="3.75678">
        <ele>653.79998779297</ele>
        <time>2012-09-05T16:42:48Z</time>
      </trkpt>
      <trkpt lat="45.3858" lon="3.75681">
        <ele>654.5</ele>
        <time>2012-09-05T16:43:02Z</time>
      </trkpt>
      <trkpt lat="45.38585" lon="3.75682">
        <ele>653.09997558594</ele>
        <time>2012-09-05T16:43:06Z</time>
      </trkpt>
      <trkpt lat="45.38589" lon="3.75688">
        <ele>652.09997558594</ele>
        <time>2012-09-05T16:43:12Z</time>
      </trkpt>
      <trkpt lat="45.38594" lon="3.75691">
        <ele>649.70001220703</ele>
        <time>2012-09-05T16:43:19Z</time>
      </trkpt>
      <trkpt lat="45.38599" lon="3.75696">
        <ele>651.79998779297</ele>
        <time>2012-09-05T16:43:23Z</time>
      </trkpt>
      <trkpt lat="45.38604" lon="3.75698">
        <ele>652.29998779297</ele>
        <time>2012-09-05T16:43:26Z</time>
      </trkpt>
      <trkpt lat="45.38609" lon="3.75702">
        <ele>652.59997558594</ele>
        <time>2012-09-05T16:43:31Z</time>
      </trkpt>
      <trkpt lat="45.38614" lon="3.75706">
        <ele>651.59997558594</ele>
        <time>2012-09-05T16:43:33Z</time>
      </trkpt>
      <trkpt lat="45.38614" lon="3.75713">
        <ele>652.20001220703</ele>
        <time>2012-09-05T16:43:37Z</time>
      </trkpt>
      <trkpt lat="45.38619" lon="3.75716">
        <ele>651.09997558594</ele>
        <time>2012-09-05T16:43:42Z</time>
      </trkpt>
      <trkpt lat="45.38623" lon="3.7572">
        <ele>651.70001220703</ele>
        <time>2012-09-05T16:43:45Z</time>
      </trkpt>
      <trkpt lat="45.38627" lon="3.75724">
        <ele>652.09997558594</ele>
        <time>2012-09-05T16:43:49Z</time>
      </trkpt>
      <trkpt lat="45.3863" lon="3.75732">
        <ele>652.09997558594</ele>
        <time>2012-09-05T16:43:55Z</time>
      </trkpt>
      <trkpt lat="45.38634" lon="3.75737">
        <ele>653.90002441406</ele>
        <time>2012-09-05T16:43:59Z</time>
      </trkpt>
      <trkpt lat="45.3864" lon="3.75746">
        <ele>654.40002441406</ele>
        <time>2012-09-05T16:44:05Z</time>
      </trkpt>
      <trkpt lat="45.38645" lon="3.75755">
        <ele>654.70001220703</ele>
        <time>2012-09-05T16:44:09Z</time>
      </trkpt>
      <trkpt lat="45.38648" lon="3.75759">
        <ele>655.29998779297</ele>
        <time>2012-09-05T16:44:11Z</time>
      </trkpt>
      <trkpt lat="45.38653" lon="3.75766">
        <ele>654.79998779297</ele>
        <time>2012-09-05T16:44:14Z</time>
      </trkpt>
      <trkpt lat="45.38657" lon="3.75771">
        <ele>655.40002441406</ele>
        <time>2012-09-05T16:44:17Z</time>
      </trkpt>
      <trkpt lat="45.38662" lon="3.75775">
        <ele>653.79998779297</ele>
        <time>2012-09-05T16:44:20Z</time>
      </trkpt>
      <trkpt lat="45.38666" lon="3.7578">
        <ele>653.5</ele>
        <time>2012-09-05T16:44:22Z</time>
      </trkpt>
      <trkpt lat="45.38669" lon="3.75786">
        <ele>651.70001220703</ele>
        <time>2012-09-05T16:44:25Z</time>
      </trkpt>
      <trkpt lat="45.38674" lon="3.75791">
        <ele>652.09997558594</ele>
        <time>2012-09-05T16:44:28Z</time>
      </trkpt>
      <trkpt lat="45.38678" lon="3.75796">
        <ele>651</ele>
        <time>2012-09-05T16:44:31Z</time>
      </trkpt>
      <trkpt lat="45.38682" lon="3.758">
        <ele>650.40002441406</ele>
        <time>2012-09-05T16:44:34Z</time>
      </trkpt>
      <trkpt lat="45.38685" lon="3.75805">
        <ele>651.90002441406</ele>
        <time>2012-09-05T16:44:36Z</time>
      </trkpt>
      <trkpt lat="45.3869" lon="3.75809">
        <ele>653.20001220703</ele>
        <time>2012-09-05T16:44:38Z</time>
      </trkpt>
      <trkpt lat="45.38693" lon="3.75813">
        <ele>653.5</ele>
        <time>2012-09-05T16:44:40Z</time>
      </trkpt>
      <trkpt lat="45.38697" lon="3.75818">
        <ele>653.5</ele>
        <time>2012-09-05T16:44:42Z</time>
      </trkpt>
      <trkpt lat="45.38701" lon="3.75823">
        <ele>654.59997558594</ele>
        <time>2012-09-05T16:44:44Z</time>
      </trkpt>
      <trkpt lat="45.38711" lon="3.75837">
        <ele>656.20001220703</ele>
        <time>2012-09-05T16:44:51Z</time>
      </trkpt>
      <trkpt lat="45.38714" lon="3.75844">
        <ele>655</ele>
        <time>2012-09-05T16:44:54Z</time>
      </trkpt>
      <trkpt lat="45.38718" lon="3.75848">
        <ele>654.70001220703</ele>
        <time>2012-09-05T16:44:56Z</time>
      </trkpt>
      <trkpt lat="45.38722" lon="3.75852">
        <ele>657</ele>
        <time>2012-09-05T16:44:58Z</time>
      </trkpt>
      <trkpt lat="45.38725" lon="3.75857">
        <ele>658.40002441406</ele>
        <time>2012-09-05T16:45:00Z</time>
      </trkpt>
      <trkpt lat="45.3873" lon="3.75862">
        <ele>659.79998779297</ele>
        <time>2012-09-05T16:45:03Z</time>
      </trkpt>
      <trkpt lat="45.38732" lon="3.75875">
        <ele>664.70001220703</ele>
        <time>2012-09-05T16:45:06Z</time>
      </trkpt>
      <trkpt lat="45.38737" lon="3.75878">
        <ele>664</ele>
        <time>2012-09-05T16:45:12Z</time>
      </trkpt>
      <trkpt lat="45.38742" lon="3.75877">
        <ele>663.70001220703</ele>
        <time>2012-09-05T16:45:16Z</time>
      </trkpt>
      <trkpt lat="45.38747" lon="3.7588">
        <ele>663.09997558594</ele>
        <time>2012-09-05T16:45:21Z</time>
      </trkpt>
      <trkpt lat="45.38753" lon="3.75885">
        <ele>662.29998779297</ele>
        <time>2012-09-05T16:45:26Z</time>
      </trkpt>
      <trkpt lat="45.38757" lon="3.75888">
        <ele>662.29998779297</ele>
        <time>2012-09-05T16:45:31Z</time>
      </trkpt>
      <trkpt lat="45.38765" lon="3.75897">
        <ele>661.90002441406</ele>
        <time>2012-09-05T16:45:40Z</time>
      </trkpt>
      <trkpt lat="45.38769" lon="3.75901">
        <ele>661.79998779297</ele>
        <time>2012-09-05T16:45:44Z</time>
      </trkpt>
      <trkpt lat="45.38773" lon="3.75905">
        <ele>662.70001220703</ele>
        <time>2012-09-05T16:45:48Z</time>
      </trkpt>
      <trkpt lat="45.38778" lon="3.75905">
        <ele>658.5</ele>
        <time>2012-09-05T16:45:53Z</time>
      </trkpt>
      <trkpt lat="45.38783" lon="3.75907">
        <ele>659.20001220703</ele>
        <time>2012-09-05T16:45:57Z</time>
      </trkpt>
      <trkpt lat="45.38788" lon="3.7591">
        <ele>659.70001220703</ele>
        <time>2012-09-05T16:46:01Z</time>
      </trkpt>
      <trkpt lat="45.38792" lon="3.75912">
        <ele>660.59997558594</ele>
        <time>2012-09-05T16:46:04Z</time>
      </trkpt>
      <trkpt lat="45.38797" lon="3.75915">
        <ele>662.70001220703</ele>
        <time>2012-09-05T16:46:09Z</time>
      </trkpt>
      <trkpt lat="45.38802" lon="3.75919">
        <ele>661.59997558594</ele>
        <time>2012-09-05T16:46:16Z</time>
      </trkpt>
      <trkpt lat="45.38806" lon="3.75922">
        <ele>659.20001220703</ele>
        <time>2012-09-05T16:46:20Z</time>
      </trkpt>
      <trkpt lat="45.38817" lon="3.75924">
        <ele>653.79998779297</ele>
        <time>2012-09-05T16:46:28Z</time>
      </trkpt>
      <trkpt lat="45.38823" lon="3.75919">
        <ele>658.40002441406</ele>
        <time>2012-09-05T16:46:33Z</time>
      </trkpt>
      <trkpt lat="45.38829" lon="3.75923">
        <ele>660.20001220703</ele>
        <time>2012-09-05T16:46:36Z</time>
      </trkpt>
      <trkpt lat="45.38834" lon="3.75921">
        <ele>657.90002441406</ele>
        <time>2012-09-05T16:46:42Z</time>
      </trkpt>
      <trkpt lat="45.38839" lon="3.75919">
        <ele>657</ele>
        <time>2012-09-05T16:46:46Z</time>
      </trkpt>
      <trkpt lat="45.38844" lon="3.75919">
        <ele>658.20001220703</ele>
        <time>2012-09-05T16:46:51Z</time>
      </trkpt>
      <trkpt lat="45.38849" lon="3.75918">
        <ele>660.5</ele>
        <time>2012-09-05T16:46:56Z</time>
      </trkpt>
      <trkpt lat="45.38854" lon="3.75919">
        <ele>658.70001220703</ele>
        <time>2012-09-05T16:47:01Z</time>
      </trkpt>
      <trkpt lat="45.38861" lon="3.75919">
        <ele>658.90002441406</ele>
        <time>2012-09-05T16:47:05Z</time>
      </trkpt>
      <trkpt lat="45.3887" lon="3.75922">
        <ele>658.70001220703</ele>
        <time>2012-09-05T16:47:09Z</time>
      </trkpt>
      <trkpt lat="45.38875" lon="3.75921">
        <ele>656.79998779297</ele>
        <time>2012-09-05T16:47:11Z</time>
      </trkpt>
      <trkpt lat="45.38881" lon="3.75922">
        <ele>657.79998779297</ele>
        <time>2012-09-05T16:47:14Z</time>
      </trkpt>
      <trkpt lat="45.38889" lon="3.75922">
        <ele>656.70001220703</ele>
        <time>2012-09-05T16:47:17Z</time>
      </trkpt>
      <trkpt lat="45.38896" lon="3.75922">
        <ele>655.70001220703</ele>
        <time>2012-09-05T16:47:20Z</time>
      </trkpt>
      <trkpt lat="45.38902" lon="3.7592">
        <ele>657</ele>
        <time>2012-09-05T16:47:23Z</time>
      </trkpt>
      <trkpt lat="45.38907" lon="3.75918">
        <ele>656</ele>
        <time>2012-09-05T16:47:25Z</time>
      </trkpt>
      <trkpt lat="45.38913" lon="3.75916">
        <ele>657.59997558594</ele>
        <time>2012-09-05T16:47:27Z</time>
      </trkpt>
      <trkpt lat="45.38919" lon="3.75916">
        <ele>656.40002441406</ele>
        <time>2012-09-05T16:47:30Z</time>
      </trkpt>
      <trkpt lat="45.38923" lon="3.75918">
        <ele>655.79998779297</ele>
        <time>2012-09-05T16:47:32Z</time>
      </trkpt>
      <trkpt lat="45.38929" lon="3.75917">
        <ele>658</ele>
        <time>2012-09-05T16:47:34Z</time>
      </trkpt>
      <trkpt lat="45.38935" lon="3.75916">
        <ele>656.79998779297</ele>
        <time>2012-09-05T16:47:37Z</time>
      </trkpt>
      <trkpt lat="45.38939" lon="3.75918">
        <ele>653.79998779297</ele>
        <time>2012-09-05T16:47:40Z</time>
      </trkpt>
      <trkpt lat="45.38946" lon="3.75922">
        <ele>649</ele>
        <time>2012-09-05T16:47:44Z</time>
      </trkpt>
      <trkpt lat="45.38955" lon="3.75925">
        <ele>649.59997558594</ele>
        <time>2012-09-05T16:47:48Z</time>
      </trkpt>
      <trkpt lat="45.38961" lon="3.75926">
        <ele>648.29998779297</ele>
        <time>2012-09-05T16:47:51Z</time>
      </trkpt>
      <trkpt lat="45.38967" lon="3.7593">
        <ele>647.20001220703</ele>
        <time>2012-09-05T16:47:54Z</time>
      </trkpt>
      <trkpt lat="45.38971" lon="3.75931">
        <ele>647.20001220703</ele>
        <time>2012-09-05T16:47:56Z</time>
      </trkpt>
      <trkpt lat="45.38976" lon="3.75932">
        <ele>647.90002441406</ele>
        <time>2012-09-05T16:47:58Z</time>
      </trkpt>
      <trkpt lat="45.38981" lon="3.75932">
        <ele>648.29998779297</ele>
        <time>2012-09-05T16:48:00Z</time>
      </trkpt>
      <trkpt lat="45.38987" lon="3.75933">
        <ele>648.40002441406</ele>
        <time>2012-09-05T16:48:03Z</time>
      </trkpt>
      <trkpt lat="45.38992" lon="3.75937">
        <ele>649</ele>
        <time>2012-09-05T16:48:06Z</time>
      </trkpt>
      <trkpt lat="45.38997" lon="3.75938">
        <ele>652</ele>
        <time>2012-09-05T16:48:12Z</time>
      </trkpt>
      <trkpt lat="45.39003" lon="3.75939">
        <ele>651.79998779297</ele>
        <time>2012-09-05T16:48:15Z</time>
      </trkpt>
      <trkpt lat="45.3901" lon="3.75941">
        <ele>654.29998779297</ele>
        <time>2012-09-05T16:48:22Z</time>
      </trkpt>
      <trkpt lat="45.39015" lon="3.75944">
        <ele>654.70001220703</ele>
        <time>2012-09-05T16:48:25Z</time>
      </trkpt>
      <trkpt lat="45.3902" lon="3.75943">
        <ele>654.59997558594</ele>
        <time>2012-09-05T16:48:30Z</time>
      </trkpt>
      <trkpt lat="45.39025" lon="3.75942">
        <ele>653.59997558594</ele>
        <time>2012-09-05T16:48:35Z</time>
      </trkpt>
      <trkpt lat="45.39029" lon="3.75946">
        <ele>652.09997558594</ele>
        <time>2012-09-05T16:48:40Z</time>
      </trkpt>
      <trkpt lat="45.39032" lon="3.75951">
        <ele>652.20001220703</ele>
        <time>2012-09-05T16:48:43Z</time>
      </trkpt>
      <trkpt lat="45.39044" lon="3.75946">
        <ele>649.79998779297</ele>
        <time>2012-09-05T16:48:50Z</time>
      </trkpt>
      <trkpt lat="45.39045" lon="3.7594">
        <ele>648.59997558594</ele>
        <time>2012-09-05T16:48:56Z</time>
      </trkpt>
      <trkpt lat="45.39047" lon="3.75931">
        <ele>649.5</ele>
        <time>2012-09-05T16:48:59Z</time>
      </trkpt>
      <trkpt lat="45.39055" lon="3.75927">
        <ele>650.20001220703</ele>
        <time>2012-09-05T16:49:06Z</time>
      </trkpt>
      <trkpt lat="45.3906" lon="3.75924">
        <ele>650.70001220703</ele>
        <time>2012-09-05T16:49:09Z</time>
      </trkpt>
      <trkpt lat="45.39063" lon="3.75919">
        <ele>645.5</ele>
        <time>2012-09-05T16:49:16Z</time>
      </trkpt>
      <trkpt lat="45.39068" lon="3.75914">
        <ele>645.09997558594</ele>
        <time>2012-09-05T16:49:23Z</time>
      </trkpt>
      <trkpt lat="45.39075" lon="3.75913">
        <ele>642.40002441406</ele>
        <time>2012-09-05T16:49:26Z</time>
      </trkpt>
      <trkpt lat="45.39085" lon="3.75911">
        <ele>646.90002441406</ele>
        <time>2012-09-05T16:49:31Z</time>
      </trkpt>
      <trkpt lat="45.39089" lon="3.75908">
        <ele>647.29998779297</ele>
        <time>2012-09-05T16:49:33Z</time>
      </trkpt>
      <trkpt lat="45.39091" lon="3.75901">
        <ele>644.90002441406</ele>
        <time>2012-09-05T16:49:38Z</time>
      </trkpt>
      <trkpt lat="45.39095" lon="3.75897">
        <ele>648.29998779297</ele>
        <time>2012-09-05T16:49:41Z</time>
      </trkpt>
      <trkpt lat="45.39097" lon="3.7589">
        <ele>649.90002441406</ele>
        <time>2012-09-05T16:49:45Z</time>
      </trkpt>
      <trkpt lat="45.39102" lon="3.75887">
        <ele>649.09997558594</ele>
        <time>2012-09-05T16:49:49Z</time>
      </trkpt>
      <trkpt lat="45.39107" lon="3.75887">
        <ele>649.09997558594</ele>
        <time>2012-09-05T16:49:55Z</time>
      </trkpt>
      <trkpt lat="45.39115" lon="3.75883">
        <ele>648.70001220703</ele>
        <time>2012-09-05T16:50:04Z</time>
      </trkpt>
      <trkpt lat="45.39118" lon="3.75876">
        <ele>648.90002441406</ele>
        <time>2012-09-05T16:50:09Z</time>
      </trkpt>
      <trkpt lat="45.39123" lon="3.75873">
        <ele>647.59997558594</ele>
        <time>2012-09-05T16:50:12Z</time>
      </trkpt>
      <trkpt lat="45.39135" lon="3.75867">
        <ele>646.90002441406</ele>
        <time>2012-09-05T16:50:17Z</time>
      </trkpt>
      <trkpt lat="45.39141" lon="3.75865">
        <ele>646</ele>
        <time>2012-09-05T16:50:20Z</time>
      </trkpt>
      <trkpt lat="45.3915" lon="3.75862">
        <ele>647.29998779297</ele>
        <time>2012-09-05T16:50:24Z</time>
      </trkpt>
      <trkpt lat="45.39157" lon="3.7586">
        <ele>649.40002441406</ele>
        <time>2012-09-05T16:50:25Z</time>
      </trkpt>
      <trkpt lat="45.39162" lon="3.75855">
        <ele>648.79998779297</ele>
        <time>2012-09-05T16:50:27Z</time>
      </trkpt>
      <trkpt lat="45.39167" lon="3.7585">
        <ele>647.5</ele>
        <time>2012-09-05T16:50:30Z</time>
      </trkpt>
      <trkpt lat="45.39171" lon="3.75845">
        <ele>649.79998779297</ele>
        <time>2012-09-05T16:50:32Z</time>
      </trkpt>
      <trkpt lat="45.39175" lon="3.75842">
        <ele>650</ele>
        <time>2012-09-05T16:50:34Z</time>
      </trkpt>
      <trkpt lat="45.39184" lon="3.75838">
        <ele>650.20001220703</ele>
        <time>2012-09-05T16:50:38Z</time>
      </trkpt>
      <trkpt lat="45.39189" lon="3.75836">
        <ele>649.90002441406</ele>
        <time>2012-09-05T16:50:40Z</time>
      </trkpt>
      <trkpt lat="45.39194" lon="3.75831">
        <ele>651</ele>
        <time>2012-09-05T16:50:44Z</time>
      </trkpt>
      <trkpt lat="45.392" lon="3.75826">
        <ele>652.79998779297</ele>
        <time>2012-09-05T16:50:46Z</time>
      </trkpt>
      <trkpt lat="45.39203" lon="3.75818">
        <ele>650.09997558594</ele>
        <time>2012-09-05T16:50:49Z</time>
      </trkpt>
      <trkpt lat="45.39202" lon="3.75809">
        <ele>650.40002441406</ele>
        <time>2012-09-05T16:50:52Z</time>
      </trkpt>
      <trkpt lat="45.39203" lon="3.75802">
        <ele>649.70001220703</ele>
        <time>2012-09-05T16:50:54Z</time>
      </trkpt>
      <trkpt lat="45.39203" lon="3.75794">
        <ele>649.40002441406</ele>
        <time>2012-09-05T16:50:56Z</time>
      </trkpt>
      <trkpt lat="45.39202" lon="3.75785">
        <ele>651.79998779297</ele>
        <time>2012-09-05T16:50:59Z</time>
      </trkpt>
      <trkpt lat="45.39203" lon="3.75778">
        <ele>652.5</ele>
        <time>2012-09-05T16:51:01Z</time>
      </trkpt>
      <trkpt lat="45.39204" lon="3.75771">
        <ele>652.40002441406</ele>
        <time>2012-09-05T16:51:03Z</time>
      </trkpt>
      <trkpt lat="45.39207" lon="3.75762">
        <ele>649.09997558594</ele>
        <time>2012-09-05T16:51:10Z</time>
      </trkpt>
      <trkpt lat="45.39207" lon="3.75755">
        <ele>650.29998779297</ele>
        <time>2012-09-05T16:51:13Z</time>
      </trkpt>
      <trkpt lat="45.39207" lon="3.75748">
        <ele>650.29998779297</ele>
        <time>2012-09-05T16:51:17Z</time>
      </trkpt>
      <trkpt lat="45.39204" lon="3.75741">
        <ele>651.20001220703</ele>
        <time>2012-09-05T16:51:22Z</time>
      </trkpt>
      <trkpt lat="45.39203" lon="3.75734">
        <ele>649.20001220703</ele>
        <time>2012-09-05T16:51:26Z</time>
      </trkpt>
      <trkpt lat="45.39203" lon="3.75727">
        <ele>647.40002441406</ele>
        <time>2012-09-05T16:51:31Z</time>
      </trkpt>
      <trkpt lat="45.39206" lon="3.75722">
        <ele>646.90002441406</ele>
        <time>2012-09-05T16:51:34Z</time>
      </trkpt>
      <trkpt lat="45.39203" lon="3.75714">
        <ele>649.20001220703</ele>
        <time>2012-09-05T16:51:38Z</time>
      </trkpt>
      <trkpt lat="45.39202" lon="3.75705">
        <ele>654.29998779297</ele>
        <time>2012-09-05T16:51:40Z</time>
      </trkpt>
      <trkpt lat="45.39205" lon="3.75698">
        <ele>651.90002441406</ele>
        <time>2012-09-05T16:51:46Z</time>
      </trkpt>
      <trkpt lat="45.39209" lon="3.75688">
        <ele>649.59997558594</ele>
        <time>2012-09-05T16:51:53Z</time>
      </trkpt>
      <trkpt lat="45.3921" lon="3.75681">
        <ele>647.20001220703</ele>
        <time>2012-09-05T16:52:00Z</time>
      </trkpt>
      <trkpt lat="45.39208" lon="3.75675">
        <ele>647.79998779297</ele>
        <time>2012-09-05T16:52:02Z</time>
      </trkpt>
      <trkpt lat="45.3921" lon="3.75667">
        <ele>648.70001220703</ele>
        <time>2012-09-05T16:52:08Z</time>
      </trkpt>
      <trkpt lat="45.39216" lon="3.75652">
        <ele>646</ele>
        <time>2012-09-05T16:52:16Z</time>
      </trkpt>
      <trkpt lat="45.39221" lon="3.75646">
        <ele>645</ele>
        <time>2012-09-05T16:52:19Z</time>
      </trkpt>
      <trkpt lat="45.39222" lon="3.7564">
        <ele>642.40002441406</ele>
        <time>2012-09-05T16:52:25Z</time>
      </trkpt>
      <trkpt lat="45.39218" lon="3.75636">
        <ele>640.79998779297</ele>
        <time>2012-09-05T16:52:30Z</time>
      </trkpt>
      <trkpt lat="45.39218" lon="3.75629">
        <ele>639.79998779297</ele>
        <time>2012-09-05T16:52:33Z</time>
      </trkpt>
      <trkpt lat="45.3922" lon="3.75623">
        <ele>638.70001220703</ele>
        <time>2012-09-05T16:52:38Z</time>
      </trkpt>
      <trkpt lat="45.39221" lon="3.75616">
        <ele>637.59997558594</ele>
        <time>2012-09-05T16:52:42Z</time>
      </trkpt>
      <trkpt lat="45.39217" lon="3.75612">
        <ele>638.40002441406</ele>
        <time>2012-09-05T16:52:46Z</time>
      </trkpt>
      <trkpt lat="45.39219" lon="3.75606">
        <ele>639.09997558594</ele>
        <time>2012-09-05T16:52:49Z</time>
      </trkpt>
      <trkpt lat="45.39222" lon="3.75591">
        <ele>640.20001220703</ele>
        <time>2012-09-05T16:52:57Z</time>
      </trkpt>
      <trkpt lat="45.39224" lon="3.75583">
        <ele>642.29998779297</ele>
        <time>2012-09-05T16:53:00Z</time>
      </trkpt>
      <trkpt lat="45.39228" lon="3.7558">
        <ele>638.79998779297</ele>
        <time>2012-09-05T16:53:03Z</time>
      </trkpt>
      <trkpt lat="45.39231" lon="3.75573">
        <ele>637.20001220703</ele>
        <time>2012-09-05T16:53:07Z</time>
      </trkpt>
      <trkpt lat="45.3923" lon="3.75565">
        <ele>641.29998779297</ele>
        <time>2012-09-05T16:53:09Z</time>
      </trkpt>
      <trkpt lat="45.39232" lon="3.75556">
        <ele>643.59997558594</ele>
        <time>2012-09-05T16:53:12Z</time>
      </trkpt>
      <trkpt lat="45.39233" lon="3.75539">
        <ele>643.40002441406</ele>
        <time>2012-09-05T16:53:17Z</time>
      </trkpt>
      <trkpt lat="45.39236" lon="3.75533">
        <ele>641.40002441406</ele>
        <time>2012-09-05T16:53:19Z</time>
      </trkpt>
      <trkpt lat="45.39235" lon="3.75521">
        <ele>643.5</ele>
        <time>2012-09-05T16:53:23Z</time>
      </trkpt>
      <trkpt lat="45.39233" lon="3.75513">
        <ele>643.59997558594</ele>
        <time>2012-09-05T16:53:25Z</time>
      </trkpt>
      <trkpt lat="45.39232" lon="3.75502">
        <ele>643.90002441406</ele>
        <time>2012-09-05T16:53:29Z</time>
      </trkpt>
      <trkpt lat="45.39234" lon="3.75492">
        <ele>645.40002441406</ele>
        <time>2012-09-05T16:53:32Z</time>
      </trkpt>
      <trkpt lat="45.39235" lon="3.75486">
        <ele>645.79998779297</ele>
        <time>2012-09-05T16:53:34Z</time>
      </trkpt>
      <trkpt lat="45.39235" lon="3.75476">
        <ele>644.79998779297</ele>
        <time>2012-09-05T16:53:37Z</time>
      </trkpt>
      <trkpt lat="45.39237" lon="3.75467">
        <ele>646.59997558594</ele>
        <time>2012-09-05T16:53:39Z</time>
      </trkpt>
      <trkpt lat="45.39238" lon="3.75449">
        <ele>645.90002441406</ele>
        <time>2012-09-05T16:53:46Z</time>
      </trkpt>
      <trkpt lat="45.39239" lon="3.75441">
        <ele>644.90002441406</ele>
        <time>2012-09-05T16:53:49Z</time>
      </trkpt>
      <trkpt lat="45.3924" lon="3.75433">
        <ele>645.40002441406</ele>
        <time>2012-09-05T16:53:52Z</time>
      </trkpt>
      <trkpt lat="45.39239" lon="3.75425">
        <ele>646.5</ele>
        <time>2012-09-05T16:53:54Z</time>
      </trkpt>
      <trkpt lat="45.39242" lon="3.75419">
        <ele>646.90002441406</ele>
        <time>2012-09-05T16:53:56Z</time>
      </trkpt>
      <trkpt lat="45.3924" lon="3.75413">
        <ele>647</ele>
        <time>2012-09-05T16:53:58Z</time>
      </trkpt>
      <trkpt lat="45.39239" lon="3.75407">
        <ele>647.59997558594</ele>
        <time>2012-09-05T16:54:00Z</time>
      </trkpt>
      <trkpt lat="45.3924" lon="3.75398">
        <ele>647</ele>
        <time>2012-09-05T16:54:03Z</time>
      </trkpt>
      <trkpt lat="45.39239" lon="3.75391">
        <ele>646.90002441406</ele>
        <time>2012-09-05T16:54:06Z</time>
      </trkpt>
      <trkpt lat="45.3924" lon="3.75384">
        <ele>645</ele>
        <time>2012-09-05T16:54:10Z</time>
      </trkpt>
      <trkpt lat="45.39239" lon="3.75377">
        <ele>647.40002441406</ele>
        <time>2012-09-05T16:54:15Z</time>
      </trkpt>
      <trkpt lat="45.3924" lon="3.75368">
        <ele>650.20001220703</ele>
        <time>2012-09-05T16:54:17Z</time>
      </trkpt>
      <trkpt lat="45.39241" lon="3.75355">
        <ele>648.90002441406</ele>
        <time>2012-09-05T16:54:25Z</time>
      </trkpt>
      <trkpt lat="45.39241" lon="3.75349">
        <ele>649.59997558594</ele>
        <time>2012-09-05T16:54:28Z</time>
      </trkpt>
      <trkpt lat="45.3924" lon="3.75341">
        <ele>644.5</ele>
        <time>2012-09-05T16:54:37Z</time>
      </trkpt>
      <trkpt lat="45.3924" lon="3.75333">
        <ele>645.20001220703</ele>
        <time>2012-09-05T16:54:41Z</time>
      </trkpt>
      <trkpt lat="45.39239" lon="3.75326">
        <ele>643.5</ele>
        <time>2012-09-05T16:54:45Z</time>
      </trkpt>
      <trkpt lat="45.39238" lon="3.75318">
        <ele>643.09997558594</ele>
        <time>2012-09-05T16:54:51Z</time>
      </trkpt>
      <trkpt lat="45.39239" lon="3.75311">
        <ele>643.79998779297</ele>
        <time>2012-09-05T16:54:55Z</time>
      </trkpt>
      <trkpt lat="45.39239" lon="3.75304">
        <ele>644.59997558594</ele>
        <time>2012-09-05T16:54:59Z</time>
      </trkpt>
      <trkpt lat="45.39238" lon="3.75297">
        <ele>644.79998779297</ele>
        <time>2012-09-05T16:55:03Z</time>
      </trkpt>
      <trkpt lat="45.39236" lon="3.7529">
        <ele>646.79998779297</ele>
        <time>2012-09-05T16:55:07Z</time>
      </trkpt>
      <trkpt lat="45.39236" lon="3.75282">
        <ele>646.40002441406</ele>
        <time>2012-09-05T16:55:11Z</time>
      </trkpt>
      <trkpt lat="45.39236" lon="3.75275">
        <ele>644.70001220703</ele>
        <time>2012-09-05T16:55:17Z</time>
      </trkpt>
      <trkpt lat="45.39231" lon="3.75269">
        <ele>645.09997558594</ele>
        <time>2012-09-05T16:55:23Z</time>
      </trkpt>
      <trkpt lat="45.3923" lon="3.75261">
        <ele>645</ele>
        <time>2012-09-05T16:55:26Z</time>
      </trkpt>
      <trkpt lat="45.3923" lon="3.75255">
        <ele>644.40002441406</ele>
        <time>2012-09-05T16:55:30Z</time>
      </trkpt>
      <trkpt lat="45.39229" lon="3.75247">
        <ele>645.5</ele>
        <time>2012-09-05T16:55:35Z</time>
      </trkpt>
      <trkpt lat="45.39227" lon="3.7524">
        <ele>644.09997558594</ele>
        <time>2012-09-05T16:55:39Z</time>
      </trkpt>
      <trkpt lat="45.39226" lon="3.75234">
        <ele>644.20001220703</ele>
        <time>2012-09-05T16:55:43Z</time>
      </trkpt>
      <trkpt lat="45.39225" lon="3.75228">
        <ele>643.29998779297</ele>
        <time>2012-09-05T16:55:47Z</time>
      </trkpt>
      <trkpt lat="45.39219" lon="3.75218">
        <ele>644.59997558594</ele>
        <time>2012-09-05T16:55:53Z</time>
      </trkpt>
      <trkpt lat="45.39217" lon="3.75212">
        <ele>644.5</ele>
        <time>2012-09-05T16:55:56Z</time>
      </trkpt>
      <trkpt lat="45.39216" lon="3.75204">
        <ele>644.5</ele>
        <time>2012-09-05T16:56:01Z</time>
      </trkpt>
      <trkpt lat="45.39215" lon="3.75197">
        <ele>643.79998779297</ele>
        <time>2012-09-05T16:56:06Z</time>
      </trkpt>
      <trkpt lat="45.39213" lon="3.75182">
        <ele>645.40002441406</ele>
        <time>2012-09-05T16:56:11Z</time>
      </trkpt>
      <trkpt lat="45.39211" lon="3.75175">
        <ele>645.20001220703</ele>
        <time>2012-09-05T16:56:14Z</time>
      </trkpt>
      <trkpt lat="45.3921" lon="3.75165">
        <ele>644.59997558594</ele>
        <time>2012-09-05T16:56:17Z</time>
      </trkpt>
      <trkpt lat="45.39208" lon="3.75159">
        <ele>644</ele>
        <time>2012-09-05T16:56:19Z</time>
      </trkpt>
      <trkpt lat="45.39207" lon="3.75153">
        <ele>644</ele>
        <time>2012-09-05T16:56:21Z</time>
      </trkpt>
      <trkpt lat="45.39205" lon="3.75144">
        <ele>646.29998779297</ele>
        <time>2012-09-05T16:56:23Z</time>
      </trkpt>
      <trkpt lat="45.39204" lon="3.75137">
        <ele>646.40002441406</ele>
        <time>2012-09-05T16:56:25Z</time>
      </trkpt>
      <trkpt lat="45.39203" lon="3.75119">
        <ele>647.5</ele>
        <time>2012-09-05T16:56:31Z</time>
      </trkpt>
      <trkpt lat="45.39205" lon="3.75111">
        <ele>647</ele>
        <time>2012-09-05T16:56:33Z</time>
      </trkpt>
      <trkpt lat="45.39205" lon="3.75104">
        <ele>647.20001220703</ele>
        <time>2012-09-05T16:56:35Z</time>
      </trkpt>
      <trkpt lat="45.39206" lon="3.75097">
        <ele>647.09997558594</ele>
        <time>2012-09-05T16:56:37Z</time>
      </trkpt>
      <trkpt lat="45.39206" lon="3.7509">
        <ele>648</ele>
        <time>2012-09-05T16:56:39Z</time>
      </trkpt>
      <trkpt lat="45.39206" lon="3.75083">
        <ele>645.59997558594</ele>
        <time>2012-09-05T16:56:42Z</time>
      </trkpt>
      <trkpt lat="45.39207" lon="3.75065">
        <ele>645.20001220703</ele>
        <time>2012-09-05T16:56:48Z</time>
      </trkpt>
      <trkpt lat="45.39208" lon="3.75057">
        <ele>644.79998779297</ele>
        <time>2012-09-05T16:56:50Z</time>
      </trkpt>
      <trkpt lat="45.39209" lon="3.75047">
        <ele>643.29998779297</ele>
        <time>2012-09-05T16:56:54Z</time>
      </trkpt>
      <trkpt lat="45.3921" lon="3.75038">
        <ele>641.79998779297</ele>
        <time>2012-09-05T16:56:57Z</time>
      </trkpt>
      <trkpt lat="45.39212" lon="3.7503">
        <ele>640.70001220703</ele>
        <time>2012-09-05T16:57:00Z</time>
      </trkpt>
      <trkpt lat="45.39214" lon="3.75024">
        <ele>636.09997558594</ele>
        <time>2012-09-05T16:57:03Z</time>
      </trkpt>
      <trkpt lat="45.39215" lon="3.75016">
        <ele>636.40002441406</ele>
        <time>2012-09-05T16:57:07Z</time>
      </trkpt>
      <trkpt lat="45.39213" lon="3.75008">
        <ele>638.20001220703</ele>
        <time>2012-09-05T16:57:10Z</time>
      </trkpt>
      <trkpt lat="45.39212" lon="3.74997">
        <ele>641.5</ele>
        <time>2012-09-05T16:57:18Z</time>
      </trkpt>
      <trkpt lat="45.39215" lon="3.74992">
        <ele>643</ele>
        <time>2012-09-05T16:57:20Z</time>
      </trkpt>
      <trkpt lat="45.39215" lon="3.74985">
        <ele>642.79998779297</ele>
        <time>2012-09-05T16:57:27Z</time>
      </trkpt>
      <trkpt lat="45.39214" lon="3.74978">
        <ele>642.20001220703</ele>
        <time>2012-09-05T16:57:30Z</time>
      </trkpt>
      <trkpt lat="45.39212" lon="3.74965">
        <ele>642.40002441406</ele>
        <time>2012-09-05T16:57:37Z</time>
      </trkpt>
      <trkpt lat="45.3921" lon="3.74958">
        <ele>640.5</ele>
        <time>2012-09-05T16:57:41Z</time>
      </trkpt>
      <trkpt lat="45.39212" lon="3.74952">
        <ele>641</ele>
        <time>2012-09-05T16:57:45Z</time>
      </trkpt>
      <trkpt lat="45.39212" lon="3.74944">
        <ele>641</ele>
        <time>2012-09-05T16:57:52Z</time>
      </trkpt>
      <trkpt lat="45.3921" lon="3.74937">
        <ele>639.90002441406</ele>
        <time>2012-09-05T16:57:56Z</time>
      </trkpt>
      <trkpt lat="45.39209" lon="3.7493">
        <ele>641.20001220703</ele>
        <time>2012-09-05T16:58:01Z</time>
      </trkpt>
      <trkpt lat="45.39206" lon="3.74925">
        <ele>641.79998779297</ele>
        <time>2012-09-05T16:58:04Z</time>
      </trkpt>
      <trkpt lat="45.39203" lon="3.7492">
        <ele>641.20001220703</ele>
        <time>2012-09-05T16:58:08Z</time>
      </trkpt>
      <trkpt lat="45.39199" lon="3.74914">
        <ele>640.09997558594</ele>
        <time>2012-09-05T16:58:14Z</time>
      </trkpt>
      <trkpt lat="45.39198" lon="3.74907">
        <ele>639.29998779297</ele>
        <time>2012-09-05T16:58:23Z</time>
      </trkpt>
      <trkpt lat="45.39195" lon="3.74902">
        <ele>638.90002441406</ele>
        <time>2012-09-05T16:58:27Z</time>
      </trkpt>
      <trkpt lat="45.39194" lon="3.749">
        <ele>640.33209228516</ele>
        <time>2012-09-05T16:58:27Z</time>
      </trkpt>
      <trkpt lat="45.39189" lon="3.7489">
        <ele>645.79998779297</ele>
        <time>2012-09-05T16:58:29Z</time>
      </trkpt>
      <trkpt lat="45.39187" lon="3.74884">
        <ele>643</ele>
        <time>2012-09-05T16:58:34Z</time>
      </trkpt>
      <trkpt lat="45.39185" lon="3.74877">
        <ele>642.59997558594</ele>
        <time>2012-09-05T16:58:39Z</time>
      </trkpt>
      <trkpt lat="45.39182" lon="3.74872">
        <ele>638.59997558594</ele>
        <time>2012-09-05T16:58:45Z</time>
      </trkpt>
      <trkpt lat="45.39178" lon="3.74868">
        <ele>639.29998779297</ele>
        <time>2012-09-05T16:58:50Z</time>
      </trkpt>
      <trkpt lat="45.39176" lon="3.74862">
        <ele>639.20001220703</ele>
        <time>2012-09-05T16:58:53Z</time>
      </trkpt>
      <trkpt lat="45.39171" lon="3.74859">
        <ele>638.09997558594</ele>
        <time>2012-09-05T16:59:00Z</time>
      </trkpt>
      <trkpt lat="45.39166" lon="3.74858">
        <ele>635.29998779297</ele>
        <time>2012-09-05T16:59:04Z</time>
      </trkpt>
      <trkpt lat="45.39159" lon="3.74856">
        <ele>638.20001220703</ele>
        <time>2012-09-05T16:59:07Z</time>
      </trkpt>
      <trkpt lat="45.39154" lon="3.74857">
        <ele>638.59997558594</ele>
        <time>2012-09-05T16:59:10Z</time>
      </trkpt>
      <trkpt lat="45.39148" lon="3.74858">
        <ele>639</ele>
        <time>2012-09-05T16:59:13Z</time>
      </trkpt>
      <trkpt lat="45.39142" lon="3.7486">
        <ele>639.40002441406</ele>
        <time>2012-09-05T16:59:16Z</time>
      </trkpt>
      <trkpt lat="45.39137" lon="3.74862">
        <ele>639.09997558594</ele>
        <time>2012-09-05T16:59:18Z</time>
      </trkpt>
      <trkpt lat="45.39132" lon="3.74865">
        <ele>639</ele>
        <time>2012-09-05T16:59:21Z</time>
      </trkpt>
      <trkpt lat="45.39125" lon="3.74866">
        <ele>637.79998779297</ele>
        <time>2012-09-05T16:59:24Z</time>
      </trkpt>
      <trkpt lat="45.3912" lon="3.74868">
        <ele>638.20001220703</ele>
        <time>2012-09-05T16:59:26Z</time>
      </trkpt>
      <trkpt lat="45.39116" lon="3.7487">
        <ele>637.70001220703</ele>
        <time>2012-09-05T16:59:28Z</time>
      </trkpt>
      <trkpt lat="45.3911" lon="3.74872">
        <ele>637.90002441406</ele>
        <time>2012-09-05T16:59:31Z</time>
      </trkpt>
      <trkpt lat="45.39105" lon="3.74873">
        <ele>638</ele>
        <time>2012-09-05T16:59:34Z</time>
      </trkpt>
      <trkpt lat="45.39096" lon="3.74875">
        <ele>637.79998779297</ele>
        <time>2012-09-05T16:59:40Z</time>
      </trkpt>
      <trkpt lat="45.39092" lon="3.74874">
        <ele>639.70001220703</ele>
        <time>2012-09-05T16:59:42Z</time>
      </trkpt>
      <trkpt lat="45.39085" lon="3.74875">
        <ele>641.40002441406</ele>
        <time>2012-09-05T16:59:45Z</time>
      </trkpt>
      <trkpt lat="45.39081" lon="3.74876">
        <ele>641.5</ele>
        <time>2012-09-05T16:59:47Z</time>
      </trkpt>
      <trkpt lat="45.39076" lon="3.74875">
        <ele>640.90002441406</ele>
        <time>2012-09-05T16:59:49Z</time>
      </trkpt>
      <trkpt lat="45.39069" lon="3.74875">
        <ele>639.40002441406</ele>
        <time>2012-09-05T16:59:52Z</time>
      </trkpt>
      <trkpt lat="45.39063" lon="3.74876">
        <ele>637.70001220703</ele>
        <time>2012-09-05T16:59:55Z</time>
      </trkpt>
      <trkpt lat="45.39058" lon="3.74875">
        <ele>638.40002441406</ele>
        <time>2012-09-05T16:59:57Z</time>
      </trkpt>
      <trkpt lat="45.39054" lon="3.74873">
        <ele>638.90002441406</ele>
        <time>2012-09-05T16:59:59Z</time>
      </trkpt>
      <trkpt lat="45.39048" lon="3.74873">
        <ele>638</ele>
        <time>2012-09-05T17:00:01Z</time>
      </trkpt>
      <trkpt lat="45.39043" lon="3.74874">
        <ele>636.90002441406</ele>
        <time>2012-09-05T17:00:04Z</time>
      </trkpt>
      <trkpt lat="45.39038" lon="3.74871">
        <ele>638</ele>
        <time>2012-09-05T17:00:08Z</time>
      </trkpt>
      <trkpt lat="45.39032" lon="3.7487">
        <ele>639.90002441406</ele>
        <time>2012-09-05T17:00:13Z</time>
      </trkpt>
      <trkpt lat="45.39028" lon="3.74866">
        <ele>636.40002441406</ele>
        <time>2012-09-05T17:00:20Z</time>
      </trkpt>
      <trkpt lat="45.3902" lon="3.74866">
        <ele>637.09997558594</ele>
        <time>2012-09-05T17:00:28Z</time>
      </trkpt>
      <trkpt lat="45.39014" lon="3.74867">
        <ele>637.79998779297</ele>
        <time>2012-09-05T17:00:33Z</time>
      </trkpt>
      <trkpt lat="45.39009" lon="3.7487">
        <ele>639.90002441406</ele>
        <time>2012-09-05T17:00:36Z</time>
      </trkpt>
      <trkpt lat="45.39003" lon="3.7487">
        <ele>639.09997558594</ele>
        <time>2012-09-05T17:00:39Z</time>
      </trkpt>
      <trkpt lat="45.38999" lon="3.7487">
        <ele>638.29998779297</ele>
        <time>2012-09-05T17:00:42Z</time>
      </trkpt>
      <trkpt lat="45.38994" lon="3.74871">
        <ele>638</ele>
        <time>2012-09-05T17:00:46Z</time>
      </trkpt>
      <trkpt lat="45.38988" lon="3.74872">
        <ele>638.20001220703</ele>
        <time>2012-09-05T17:00:50Z</time>
      </trkpt>
      <trkpt lat="45.38982" lon="3.74872">
        <ele>636.5</ele>
        <time>2012-09-05T17:00:56Z</time>
      </trkpt>
      <trkpt lat="45.38977" lon="3.74874">
        <ele>635.5</ele>
        <time>2012-09-05T17:01:01Z</time>
      </trkpt>
      <trkpt lat="45.3897" lon="3.74874">
        <ele>639.90002441406</ele>
        <time>2012-09-05T17:01:07Z</time>
      </trkpt>
      <trkpt lat="45.38964" lon="3.74874">
        <ele>637.59997558594</ele>
        <time>2012-09-05T17:01:11Z</time>
      </trkpt>
      <trkpt lat="45.3896" lon="3.74873">
        <ele>638.09997558594</ele>
        <time>2012-09-05T17:01:17Z</time>
      </trkpt>
      <trkpt lat="45.38955" lon="3.74875">
        <ele>637.90002441406</ele>
        <time>2012-09-05T17:01:21Z</time>
      </trkpt>
      <trkpt lat="45.38951" lon="3.7487">
        <ele>638.59997558594</ele>
        <time>2012-09-05T17:01:24Z</time>
      </trkpt>
      <trkpt lat="45.3894" lon="3.74871">
        <ele>638.09997558594</ele>
        <time>2012-09-05T17:01:35Z</time>
      </trkpt>
      <trkpt lat="45.38935" lon="3.74872">
        <ele>637.20001220703</ele>
        <time>2012-09-05T17:01:39Z</time>
      </trkpt>
      <trkpt lat="45.38929" lon="3.74873">
        <ele>636.5</ele>
        <time>2012-09-05T17:01:41Z</time>
      </trkpt>
      <trkpt lat="45.38923" lon="3.74871">
        <ele>635.90002441406</ele>
        <time>2012-09-05T17:01:46Z</time>
      </trkpt>
      <trkpt lat="45.3892" lon="3.74876">
        <ele>635.70001220703</ele>
        <time>2012-09-05T17:01:50Z</time>
      </trkpt>
      <trkpt lat="45.38914" lon="3.74875">
        <ele>636</ele>
        <time>2012-09-05T17:01:54Z</time>
      </trkpt>
      <trkpt lat="45.3891" lon="3.74878">
        <ele>637.09997558594</ele>
        <time>2012-09-05T17:01:57Z</time>
      </trkpt>
      <trkpt lat="45.38904" lon="3.74877">
        <ele>637.79998779297</ele>
        <time>2012-09-05T17:02:02Z</time>
      </trkpt>
      <trkpt lat="45.38898" lon="3.7488">
        <ele>640</ele>
        <time>2012-09-05T17:02:07Z</time>
      </trkpt>
      <trkpt lat="45.3889" lon="3.74879">
        <ele>641</ele>
        <time>2012-09-05T17:02:12Z</time>
      </trkpt>
      <trkpt lat="45.38884" lon="3.74881">
        <ele>640.40002441406</ele>
        <time>2012-09-05T17:02:15Z</time>
      </trkpt>
      <trkpt lat="45.38878" lon="3.74881">
        <ele>640.40002441406</ele>
        <time>2012-09-05T17:02:18Z</time>
      </trkpt>
      <trkpt lat="45.38873" lon="3.7488">
        <ele>640.79998779297</ele>
        <time>2012-09-05T17:02:20Z</time>
      </trkpt>
      <trkpt lat="45.38861" lon="3.74881">
        <ele>641.5</ele>
        <time>2012-09-05T17:02:27Z</time>
      </trkpt>
      <trkpt lat="45.38853" lon="3.74879">
        <ele>640.5</ele>
        <time>2012-09-05T17:02:30Z</time>
      </trkpt>
      <trkpt lat="45.38848" lon="3.74878">
        <ele>639.79998779297</ele>
        <time>2012-09-05T17:02:32Z</time>
      </trkpt>
      <trkpt lat="45.38843" lon="3.74879">
        <ele>641</ele>
        <time>2012-09-05T17:02:34Z</time>
      </trkpt>
      <trkpt lat="45.38838" lon="3.74879">
        <ele>642.70001220703</ele>
        <time>2012-09-05T17:02:36Z</time>
      </trkpt>
      <trkpt lat="45.38833" lon="3.74881">
        <ele>644</ele>
        <time>2012-09-05T17:02:38Z</time>
      </trkpt>
      <trkpt lat="45.38827" lon="3.74879">
        <ele>642.59997558594</ele>
        <time>2012-09-05T17:02:41Z</time>
      </trkpt>
      <trkpt lat="45.38821" lon="3.74881">
        <ele>639.70001220703</ele>
        <time>2012-09-05T17:02:44Z</time>
      </trkpt>
      <trkpt lat="45.38816" lon="3.74881">
        <ele>640.40002441406</ele>
        <time>2012-09-05T17:02:46Z</time>
      </trkpt>
      <trkpt lat="45.3881" lon="3.74882">
        <ele>639.09997558594</ele>
        <time>2012-09-05T17:02:49Z</time>
      </trkpt>
      <trkpt lat="45.38803" lon="3.74884">
        <ele>634.90002441406</ele>
        <time>2012-09-05T17:02:52Z</time>
      </trkpt>
      <trkpt lat="45.38796" lon="3.74889">
        <ele>635.5</ele>
        <time>2012-09-05T17:02:56Z</time>
      </trkpt>
      <trkpt lat="45.38792" lon="3.74893">
        <ele>636.59997558594</ele>
        <time>2012-09-05T17:02:59Z</time>
      </trkpt>
      <trkpt lat="45.38787" lon="3.74896">
        <ele>639.5</ele>
        <time>2012-09-05T17:03:02Z</time>
      </trkpt>
      <trkpt lat="45.38782" lon="3.749">
        <ele>641.59997558594</ele>
        <time>2012-09-05T17:03:07Z</time>
      </trkpt>
      <trkpt lat="45.38777" lon="3.74905">
        <ele>642.20001220703</ele>
        <time>2012-09-05T17:03:14Z</time>
      </trkpt>
      <trkpt lat="45.38772" lon="3.74907">
        <ele>643.90002441406</ele>
        <time>2012-09-05T17:03:17Z</time>
      </trkpt>
      <trkpt lat="45.38769" lon="3.74913">
        <ele>638.20001220703</ele>
        <time>2012-09-05T17:03:24Z</time>
      </trkpt>
      <trkpt lat="45.38764" lon="3.74916">
        <ele>637.79998779297</ele>
        <time>2012-09-05T17:03:29Z</time>
      </trkpt>
      <trkpt lat="45.38758" lon="3.7492">
        <ele>638.09997558594</ele>
        <time>2012-09-05T17:03:36Z</time>
      </trkpt>
      <trkpt lat="45.38751" lon="3.74924">
        <ele>639</ele>
        <time>2012-09-05T17:03:41Z</time>
      </trkpt>
      <trkpt lat="45.38747" lon="3.74928">
        <ele>638.40002441406</ele>
        <time>2012-09-05T17:03:45Z</time>
      </trkpt>
      <trkpt lat="45.38743" lon="3.74932">
        <ele>636.90002441406</ele>
        <time>2012-09-05T17:03:49Z</time>
      </trkpt>
      <trkpt lat="45.38736" lon="3.74936">
        <ele>634.59997558594</ele>
        <time>2012-09-05T17:03:55Z</time>
      </trkpt>
      <trkpt lat="45.3873" lon="3.74939">
        <ele>638.70001220703</ele>
        <time>2012-09-05T17:03:57Z</time>
      </trkpt>
      <trkpt lat="45.38724" lon="3.74939">
        <ele>640.40002441406</ele>
        <time>2012-09-05T17:03:59Z</time>
      </trkpt>
      <trkpt lat="45.38719" lon="3.7494">
        <ele>641.29998779297</ele>
        <time>2012-09-05T17:04:03Z</time>
      </trkpt>
      <trkpt lat="45.38714" lon="3.74943">
        <ele>646.40002441406</ele>
        <time>2012-09-05T17:04:07Z</time>
      </trkpt>
      <trkpt lat="45.38712" lon="3.7495">
        <ele>644.59997558594</ele>
        <time>2012-09-05T17:04:11Z</time>
      </trkpt>
      <trkpt lat="45.3871" lon="3.74956">
        <ele>642.09997558594</ele>
        <time>2012-09-05T17:04:15Z</time>
      </trkpt>
      <trkpt lat="45.38706" lon="3.74957">
        <ele>639.79998779297</ele>
        <time>2012-09-05T17:04:24Z</time>
      </trkpt>
      <trkpt lat="45.38701" lon="3.74962">
        <ele>639.79998779297</ele>
        <time>2012-09-05T17:04:29Z</time>
      </trkpt>
      <trkpt lat="45.38696" lon="3.74966">
        <ele>640.70001220703</ele>
        <time>2012-09-05T17:04:34Z</time>
      </trkpt>
      <trkpt lat="45.38691" lon="3.74966">
        <ele>641.29998779297</ele>
        <time>2012-09-05T17:04:37Z</time>
      </trkpt>
      <trkpt lat="45.38685" lon="3.74968">
        <ele>642.09997558594</ele>
        <time>2012-09-05T17:04:42Z</time>
      </trkpt>
      <trkpt lat="45.3868" lon="3.74971">
        <ele>639.79998779297</ele>
        <time>2012-09-05T17:04:48Z</time>
      </trkpt>
      <trkpt lat="45.38677" lon="3.74975">
        <ele>639.90002441406</ele>
        <time>2012-09-05T17:04:53Z</time>
      </trkpt>
      <trkpt lat="45.38672" lon="3.74978">
        <ele>641.09997558594</ele>
        <time>2012-09-05T17:04:56Z</time>
      </trkpt>
      <trkpt lat="45.38666" lon="3.7498">
        <ele>641.90002441406</ele>
        <time>2012-09-05T17:05:01Z</time>
      </trkpt>
      <trkpt lat="45.38659" lon="3.74983">
        <ele>643.20001220703</ele>
        <time>2012-09-05T17:05:05Z</time>
      </trkpt>
      <trkpt lat="45.38655" lon="3.74986">
        <ele>643.20001220703</ele>
        <time>2012-09-05T17:05:08Z</time>
      </trkpt>
      <trkpt lat="45.3865" lon="3.74989">
        <ele>643.79998779297</ele>
        <time>2012-09-05T17:05:11Z</time>
      </trkpt>
      <trkpt lat="45.38644" lon="3.74991">
        <ele>644.79998779297</ele>
        <time>2012-09-05T17:05:14Z</time>
      </trkpt>
      <trkpt lat="45.3864" lon="3.74994">
        <ele>645.09997558594</ele>
        <time>2012-09-05T17:05:16Z</time>
      </trkpt>
      <trkpt lat="45.38634" lon="3.74998">
        <ele>644</ele>
        <time>2012-09-05T17:05:19Z</time>
      </trkpt>
      <trkpt lat="45.3863" lon="3.75002">
        <ele>643.29998779297</ele>
        <time>2012-09-05T17:05:22Z</time>
      </trkpt>
      <trkpt lat="45.38625" lon="3.75006">
        <ele>641.90002441406</ele>
        <time>2012-09-05T17:05:25Z</time>
      </trkpt>
      <trkpt lat="45.38621" lon="3.75011">
        <ele>642.09997558594</ele>
        <time>2012-09-05T17:05:27Z</time>
      </trkpt>
      <trkpt lat="45.38617" lon="3.75016">
        <ele>640.90002441406</ele>
        <time>2012-09-05T17:05:30Z</time>
      </trkpt>
      <trkpt lat="45.38613" lon="3.75021">
        <ele>639.70001220703</ele>
        <time>2012-09-05T17:05:33Z</time>
      </trkpt>
      <trkpt lat="45.38608" lon="3.75025">
        <ele>640.09997558594</ele>
        <time>2012-09-05T17:05:36Z</time>
      </trkpt>
      <trkpt lat="45.38603" lon="3.75031">
        <ele>641.40002441406</ele>
        <time>2012-09-05T17:05:39Z</time>
      </trkpt>
      <trkpt lat="45.386" lon="3.75036">
        <ele>641.5</ele>
        <time>2012-09-05T17:05:42Z</time>
      </trkpt>
      <trkpt lat="45.38596" lon="3.75042">
        <ele>640.5</ele>
        <time>2012-09-05T17:05:45Z</time>
      </trkpt>
      <trkpt lat="45.38591" lon="3.75048">
        <ele>641.59997558594</ele>
        <time>2012-09-05T17:05:48Z</time>
      </trkpt>
      <trkpt lat="45.38589" lon="3.75054">
        <ele>642.20001220703</ele>
        <time>2012-09-05T17:05:51Z</time>
      </trkpt>
      <trkpt lat="45.38584" lon="3.75062">
        <ele>642.70001220703</ele>
        <time>2012-09-05T17:05:55Z</time>
      </trkpt>
      <trkpt lat="45.38581" lon="3.75069">
        <ele>642.29998779297</ele>
        <time>2012-09-05T17:05:58Z</time>
      </trkpt>
      <trkpt lat="45.38578" lon="3.75075">
        <ele>643.29998779297</ele>
        <time>2012-09-05T17:06:01Z</time>
      </trkpt>
      <trkpt lat="45.38574" lon="3.75079">
        <ele>643.79998779297</ele>
        <time>2012-09-05T17:06:04Z</time>
      </trkpt>
      <trkpt lat="45.3857" lon="3.75083">
        <ele>644.5</ele>
        <time>2012-09-05T17:06:08Z</time>
      </trkpt>
      <trkpt lat="45.3856" lon="3.75091">
        <ele>643.29998779297</ele>
        <time>2012-09-05T17:06:19Z</time>
      </trkpt>
      <trkpt lat="45.38555" lon="3.75094">
        <ele>644.29998779297</ele>
        <time>2012-09-05T17:06:21Z</time>
      </trkpt>
      <trkpt lat="45.3855" lon="3.75097">
        <ele>643.70001220703</ele>
        <time>2012-09-05T17:06:28Z</time>
      </trkpt>
      <trkpt lat="45.38547" lon="3.75103">
        <ele>644.90002441406</ele>
        <time>2012-09-05T17:06:33Z</time>
      </trkpt>
      <trkpt lat="45.38536" lon="3.7511">
        <ele>645.29998779297</ele>
        <time>2012-09-05T17:06:40Z</time>
      </trkpt>
      <trkpt lat="45.38531" lon="3.75112">
        <ele>645.40002441406</ele>
        <time>2012-09-05T17:06:43Z</time>
      </trkpt>
      <trkpt lat="45.38527" lon="3.75116">
        <ele>646.5</ele>
        <time>2012-09-05T17:06:49Z</time>
      </trkpt>
      <trkpt lat="45.38522" lon="3.75118">
        <ele>648.70001220703</ele>
        <time>2012-09-05T17:06:55Z</time>
      </trkpt>
      <trkpt lat="45.38518" lon="3.75119">
        <ele>649</ele>
        <time>2012-09-05T17:06:59Z</time>
      </trkpt>
      <trkpt lat="45.38513" lon="3.7512">
        <ele>649.09997558594</ele>
        <time>2012-09-05T17:07:07Z</time>
      </trkpt>
      <trkpt lat="45.38507" lon="3.7512">
        <ele>648.59997558594</ele>
        <time>2012-09-05T17:07:11Z</time>
      </trkpt>
      <trkpt lat="45.38502" lon="3.75123">
        <ele>649.79998779297</ele>
        <time>2012-09-05T17:07:17Z</time>
      </trkpt>
      <trkpt lat="45.38497" lon="3.75125">
        <ele>651</ele>
        <time>2012-09-05T17:07:20Z</time>
      </trkpt>
      <trkpt lat="45.38493" lon="3.75128">
        <ele>650.59997558594</ele>
        <time>2012-09-05T17:07:23Z</time>
      </trkpt>
      <trkpt lat="45.38488" lon="3.75127">
        <ele>649.90002441406</ele>
        <time>2012-09-05T17:07:31Z</time>
      </trkpt>
      <trkpt lat="45.38481" lon="3.75128">
        <ele>649.40002441406</ele>
        <time>2012-09-05T17:07:38Z</time>
      </trkpt>
      <trkpt lat="45.38476" lon="3.75126">
        <ele>650.09997558594</ele>
        <time>2012-09-05T17:07:42Z</time>
      </trkpt>
      <trkpt lat="45.38472" lon="3.7513">
        <ele>650</ele>
        <time>2012-09-05T17:07:45Z</time>
      </trkpt>
      <trkpt lat="45.38466" lon="3.7513">
        <ele>648.5</ele>
        <time>2012-09-05T17:07:51Z</time>
      </trkpt>
      <trkpt lat="45.3846" lon="3.75133">
        <ele>648.70001220703</ele>
        <time>2012-09-05T17:07:56Z</time>
      </trkpt>
      <trkpt lat="45.38455" lon="3.75136">
        <ele>647</ele>
        <time>2012-09-05T17:08:02Z</time>
      </trkpt>
    </trkseg>
  </trk>
</gpx>